createdAt,value
2024-03-26T00:00:01.363Z,2.10
2024-03-26T00:05:00.873Z,2.20
2024-03-26T00:10:00.905Z,1.90
2024-03-26T00:15:00.702Z,1.80
2024-03-26T00:20:00.643Z,2.10
2024-03-26T00:25:00.665Z,1.60
2024-03-26T00:30:00.684Z,2.90
2024-03-26T00:35:00.663Z,1.50
2024-03-26T00:40:00.819Z,2.00
2024-03-26T00:45:00.683Z,2.10
2024-03-26T00:50:00.678Z,2.00
2024-03-26T00:55:00.674Z,2.60
2024-03-26T01:00:01.742Z,2.20
2024-03-26T01:05:00.634Z,1.90
2024-03-26T01:10:00.639Z,2.40
2024-03-26T01:15:01.428Z,1.70
2024-03-26T01:20:00.702Z,2.10
2024-03-26T01:25:00.697Z,2.10
2024-03-26T01:30:00.645Z,1.80
2024-03-26T01:35:00.655Z,1.70
2024-03-26T01:40:00.723Z,2.00
2024-03-26T01:45:01.165Z,2.00
2024-03-26T01:50:04.282Z,1.80
2024-03-26T01:55:01.650Z,2.80
2024-03-26T02:00:02.947Z,2.00
2024-03-26T02:05:00.662Z,2.40
2024-03-26T02:10:01.910Z,2.10
2024-03-26T02:15:00.709Z,2.30
2024-03-26T02:20:01.236Z,2.40
2024-03-26T02:25:00.704Z,2.80
2024-03-26T02:30:00.656Z,1.90
2024-03-26T02:35:00.633Z,2.40
2024-03-26T02:40:00.772Z,2.40
2024-03-26T02:45:00.676Z,2.30
2024-03-26T02:50:00.871Z,2.00
2024-03-26T02:55:00.706Z,2.40
2024-03-26T03:00:01.593Z,2.00
2024-03-26T03:05:00.655Z,1.80
2024-03-26T03:10:00.856Z,2.00
2024-03-26T03:15:00.635Z,1.90
2024-03-26T03:20:00.705Z,2.00
2024-03-26T03:25:00.640Z,2.10
2024-03-26T03:30:00.719Z,2.50
2024-03-26T03:35:00.683Z,2.10
2024-03-26T03:40:00.701Z,2.20
2024-03-26T03:45:00.668Z,2.10
2024-03-26T03:50:00.686Z,2.00
2024-03-26T03:55:00.638Z,1.80
2024-03-26T04:00:01.274Z,2.10
2024-03-26T04:05:00.783Z,2.90
2024-03-26T04:10:01.264Z,2.20
2024-03-26T04:15:00.669Z,1.80
2024-03-26T04:20:00.660Z,2.60
2024-03-26T04:25:00.708Z,2.30
2024-03-26T04:30:00.683Z,2.20
2024-03-26T04:35:00.700Z,2.00
2024-03-26T04:40:00.687Z,2.30
2024-03-26T04:45:00.727Z,2.00
2024-03-26T04:50:00.648Z,2.40
2024-03-26T04:55:00.672Z,2.40
2024-03-26T05:00:01.223Z,1.90
2024-03-26T05:05:00.671Z,2.30
2024-03-26T05:10:01.270Z,2.40
2024-03-26T05:15:01.174Z,2.20
2024-03-26T05:20:00.739Z,1.80
2024-03-26T05:25:00.716Z,2.10
2024-03-26T05:30:00.736Z,2.20
2024-03-26T05:35:00.680Z,2.20
2024-03-26T05:40:00.658Z,2.20
2024-03-26T05:45:00.643Z,2.10
2024-03-26T05:50:00.877Z,2.20
2024-03-26T05:55:00.662Z,2.20
2024-03-26T06:00:01.207Z,2.60
2024-03-26T06:05:00.678Z,2.00
2024-03-26T06:10:00.675Z,2.10
2024-03-26T06:15:00.639Z,2.30
2024-03-26T06:20:00.692Z,2.00
2024-03-26T06:25:00.970Z,2.30
2024-03-26T06:30:01.061Z,2.20
2024-03-26T06:35:00.668Z,2.00
2024-03-26T06:40:00.713Z,1.90
2024-03-26T06:45:00.675Z,2.60
2024-03-26T06:50:00.649Z,2.30
2024-03-26T06:55:00.638Z,2.50
2024-03-26T07:00:01.267Z,1.80
2024-03-26T07:05:00.699Z,2.00
2024-03-26T07:10:01.268Z,2.40
2024-03-26T07:15:00.667Z,2.30
2024-03-26T07:20:00.733Z,2.10
2024-03-26T07:25:00.690Z,2.00
2024-03-26T07:30:00.693Z,2.30
2024-03-26T07:35:00.655Z,2.00
2024-03-26T07:40:00.763Z,2.70
2024-03-26T07:45:00.788Z,2.00
2024-03-26T07:50:00.757Z,2.10
2024-03-26T07:55:01.729Z,2.00
2024-03-26T08:00:01.062Z,1.90
2024-03-26T08:05:00.669Z,2.40
2024-03-26T08:10:00.707Z,2.40
2024-03-26T08:15:00.812Z,2.20
2024-03-26T08:20:00.777Z,2.30
2024-03-26T08:25:00.687Z,2.30
2024-03-26T08:30:00.763Z,2.60
2024-03-26T08:35:00.682Z,2.20
2024-03-26T08:40:02.221Z,2.10
2024-03-26T08:45:00.805Z,1.80
2024-03-26T08:50:02.175Z,2.00
2024-03-26T08:55:00.651Z,2.70
2024-03-26T09:00:02.536Z,2.30
2024-03-26T09:05:00.705Z,2.00
2024-03-26T09:10:00.664Z,2.30
2024-03-26T09:15:00.800Z,1.80
2024-03-26T09:20:00.694Z,2.30
2024-03-26T09:25:00.661Z,2.60
2024-03-26T09:30:01.664Z,2.60
2024-03-26T09:35:00.661Z,2.00
2024-03-26T09:40:00.656Z,2.40
2024-03-26T09:45:05.788Z,2.50
2024-03-26T09:50:02.925Z,2.20
2024-03-26T09:55:01.691Z,2.20
2024-03-26T10:00:01.448Z,2.30
2024-03-26T10:05:02.508Z,2.50
2024-03-26T10:10:01.893Z,2.60
2024-03-26T10:15:00.736Z,2.50
2024-03-26T10:20:01.293Z,2.70
2024-03-26T10:25:00.690Z,2.90
2024-03-26T10:30:00.723Z,2.80
2024-03-26T10:35:03.862Z,3.50
2024-03-26T10:40:06.551Z,4.00
2024-03-26T10:45:01.133Z,4.20
2024-03-26T10:50:00.694Z,4.20
2024-03-26T10:55:00.815Z,3.70
2024-03-26T11:00:06.463Z,4.40
2024-03-26T11:05:00.735Z,4.30
2024-03-26T11:10:07.612Z,3.80
2024-03-26T11:20:00.655Z,5.30
2024-03-26T11:25:03.274Z,4.00
2024-03-26T11:30:01.390Z,4.00
2024-03-26T11:40:01.478Z,3.70
2024-03-26T11:45:03.634Z,3.60
2024-03-26T11:50:01.094Z,3.30
2024-03-26T11:55:01.287Z,4.00
2024-03-26T12:00:01.245Z,3.50
2024-03-26T12:05:00.685Z,3.30
2024-03-26T12:10:01.196Z,2.80
2024-03-26T12:15:03.718Z,3.40
2024-03-26T12:20:00.786Z,2.80
2024-03-26T12:25:05.329Z,3.40
2024-03-26T12:30:01.544Z,3.00
2024-03-26T12:35:00.813Z,2.50
2024-03-26T12:40:00.850Z,2.90
2024-03-26T12:45:00.643Z,3.20
2024-03-26T12:50:03.815Z,3.30
2024-03-26T12:55:00.651Z,3.00
2024-03-26T13:00:01.190Z,3.10
2024-03-26T13:05:00.709Z,3.20
2024-03-26T13:10:00.678Z,3.00
2024-03-26T13:15:00.669Z,2.50
2024-03-26T13:20:00.672Z,3.00
2024-03-26T13:25:00.688Z,3.10
2024-03-26T13:30:00.656Z,3.00
2024-03-26T13:35:00.704Z,2.80
2024-03-26T13:40:00.689Z,3.10
2024-03-26T13:45:00.960Z,2.80
2024-03-26T13:50:00.753Z,2.60
2024-03-26T13:55:01.006Z,3.50
2024-03-26T14:00:01.215Z,3.10
2024-03-26T14:05:00.697Z,3.10
2024-03-26T14:10:00.671Z,2.80
2024-03-26T14:15:00.890Z,3.40
2024-03-26T14:20:00.687Z,2.90
2024-03-26T14:25:00.666Z,2.90
2024-03-26T14:30:00.664Z,3.00
2024-03-26T14:35:00.772Z,3.00
2024-03-26T14:40:00.700Z,2.50
2024-03-26T14:45:00.664Z,2.40
2024-03-26T14:50:00.687Z,2.50
2024-03-26T14:55:00.694Z,2.50
2024-03-26T15:00:01.322Z,2.40
2024-03-26T15:05:00.703Z,2.30
2024-03-26T15:10:00.988Z,2.60
2024-03-26T15:15:01.575Z,3.40
2024-03-26T15:20:01.015Z,3.20
2024-03-26T15:25:00.658Z,3.30
2024-03-26T15:30:00.888Z,2.80
2024-03-26T15:35:00.636Z,3.80
2024-03-26T15:40:00.795Z,3.40
2024-03-26T15:45:00.700Z,2.90
2024-03-26T15:50:00.641Z,3.30
2024-03-26T15:55:00.735Z,3.40
2024-03-26T16:00:01.133Z,3.40
2024-03-26T16:05:00.703Z,3.20
2024-03-26T16:10:14.502Z,3.20
2024-03-26T16:15:00.722Z,3.40
2024-03-26T16:20:00.880Z,3.40
2024-03-26T16:25:00.685Z,3.30
2024-03-26T16:30:00.738Z,3.10
2024-03-26T16:35:00.783Z,3.00
2024-03-26T16:40:00.686Z,2.90
2024-03-26T16:45:02.959Z,3.30
2024-03-26T16:50:00.786Z,3.60
2024-03-26T16:55:00.722Z,3.30
2024-03-26T17:00:02.620Z,3.50
2024-03-26T17:05:01.182Z,3.40
2024-03-26T17:10:00.879Z,3.30
2024-03-26T17:15:01.143Z,3.80
2024-03-26T17:20:00.624Z,3.80
2024-03-26T17:25:00.675Z,3.80
2024-03-26T17:30:00.764Z,3.60
2024-03-26T17:35:00.705Z,4.30
2024-03-26T17:40:00.666Z,4.40
2024-03-26T17:45:01.388Z,4.20
2024-03-26T17:50:01.103Z,4.00
2024-03-26T17:55:00.754Z,3.90
2024-03-26T18:00:01.163Z,4.10
2024-03-26T18:05:00.676Z,3.60
2024-03-26T18:10:01.737Z,3.30
2024-03-26T18:15:01.044Z,3.00
2024-03-26T18:20:00.732Z,3.00
2024-03-26T18:25:00.655Z,3.50
2024-03-26T18:30:00.770Z,3.30
2024-03-26T18:35:00.682Z,3.20
2024-03-26T18:40:00.780Z,3.70
2024-03-26T18:45:00.716Z,2.70
2024-03-26T18:50:00.715Z,2.50
2024-03-26T18:55:00.651Z,4.00
2024-03-26T19:00:01.306Z,3.20
2024-03-26T19:05:00.674Z,3.30
2024-03-26T19:10:00.760Z,2.80
2024-03-26T19:15:00.688Z,2.80
2024-03-26T19:20:00.973Z,3.40
2024-03-26T19:25:00.701Z,3.20
2024-03-26T19:30:00.685Z,3.60
2024-03-26T19:35:00.692Z,3.10
2024-03-26T19:40:00.710Z,3.30
2024-03-26T19:45:00.708Z,3.00
2024-03-26T19:50:00.762Z,3.30
2024-03-26T19:55:00.700Z,3.50
2024-03-26T20:00:02.734Z,3.00
2024-03-26T20:05:00.639Z,3.40
2024-03-26T20:10:00.687Z,3.20
2024-03-26T20:15:00.729Z,3.40
2024-03-26T20:20:00.620Z,3.10
2024-03-26T20:25:00.654Z,3.10
2024-03-26T20:30:01.048Z,3.30
2024-03-26T20:35:00.636Z,3.20
2024-03-26T20:40:00.647Z,3.40
2024-03-26T20:45:00.698Z,3.40
2024-03-26T20:50:04.573Z,2.80
2024-03-26T20:55:00.702Z,2.80
2024-03-26T21:00:01.351Z,3.00
2024-03-26T21:05:00.634Z,3.20
2024-03-26T21:10:01.350Z,2.70
2024-03-26T21:15:09.921Z,2.70
2024-03-26T21:20:00.686Z,2.40
2024-03-26T21:25:00.679Z,2.70
2024-03-26T21:30:00.891Z,3.20
2024-03-26T21:35:00.715Z,2.90
2024-03-26T21:40:00.674Z,2.90
2024-03-26T21:45:00.703Z,2.60
2024-03-26T21:50:01.114Z,2.80
2024-03-26T21:55:00.718Z,3.50
2024-03-26T22:00:02.228Z,2.50
2024-03-26T22:05:00.730Z,2.80
2024-03-26T22:10:00.703Z,2.50
2024-03-26T22:15:00.669Z,2.50
2024-03-26T22:20:00.762Z,2.50
2024-03-26T22:25:00.708Z,2.30
2024-03-26T22:30:00.761Z,2.00
2024-03-26T22:35:00.686Z,1.90
2024-03-26T22:40:00.724Z,1.80
2024-03-26T22:45:00.772Z,2.30
2024-03-26T22:50:00.789Z,2.10
2024-03-26T22:55:00.657Z,2.40
2024-03-26T23:00:01.292Z,2.30
2024-03-26T23:05:00.674Z,2.00
2024-03-26T23:10:00.816Z,2.50
2024-03-26T23:15:00.727Z,2.00
2024-03-26T23:20:00.669Z,2.40
2024-03-26T23:25:01.101Z,2.00
2024-03-26T23:30:00.798Z,2.40
2024-03-26T23:35:00.895Z,2.00
2024-03-26T23:40:04.390Z,2.60
2024-03-26T23:45:01.560Z,2.00
2024-03-26T23:50:01.167Z,2.20
2024-03-26T23:55:01.051Z,2.00
